createdAt,value
2017-09-04T00:00:43.949Z,3.60
2017-09-04T00:03:11.779Z,3.40
2017-09-04T00:05:39.260Z,3.70
2017-09-04T00:08:06.749Z,3.60
2017-09-04T00:10:34.244Z,3.87
2017-09-04T00:13:01.736Z,3.25
2017-09-04T00:15:29.253Z,3.80
2017-09-04T00:17:56.741Z,4.32
2017-09-04T00:20:24.221Z,4.15
2017-09-04T00:22:51.712Z,4.22
2017-09-04T00:25:19.187Z,4.10
2017-09-04T00:27:46.695Z,3.10
2017-09-04T00:30:14.181Z,3.47
2017-09-04T00:32:42.614Z,3.20
2017-09-04T00:35:10.105Z,3.28
2017-09-04T00:37:37.612Z,3.50
2017-09-04T00:40:05.136Z,3.58
2017-09-04T00:42:32.631Z,3.15
2017-09-04T00:45:01.043Z,3.60
2017-09-04T00:47:28.539Z,3.65
2017-09-04T00:49:56.032Z,2.70
2017-09-04T00:52:23.536Z,3.05
2017-09-04T00:54:51.020Z,2.92
2017-09-04T00:57:18.507Z,3.00
2017-09-04T00:59:46.012Z,2.70
2017-09-04T01:02:13.497Z,3.60
2017-09-04T01:04:40.987Z,3.05
2017-09-04T01:07:08.477Z,2.90
2017-09-04T01:09:35.956Z,2.85
2017-09-04T01:12:03.486Z,3.30
2017-09-04T01:14:30.971Z,3.25
2017-09-04T01:16:58.457Z,3.42
2017-09-04T01:19:25.964Z,3.42
2017-09-04T01:21:53.444Z,3.87
2017-09-04T01:24:20.933Z,3.33
2017-09-04T01:26:48.424Z,3.65
2017-09-04T01:29:15.920Z,3.35
2017-09-04T01:31:43.424Z,3.40
2017-09-04T01:34:10.716Z,3.30
2017-09-04T01:36:38.196Z,3.30
2017-09-04T01:39:05.681Z,3.60
2017-09-04T01:41:33.164Z,3.65
2017-09-04T01:44:00.668Z,3.10
2017-09-04T01:46:28.153Z,3.00
2017-09-04T01:48:55.644Z,3.45
2017-09-04T01:51:22.941Z,2.95
2017-09-04T01:53:50.421Z,3.50
2017-09-04T01:56:17.920Z,3.50
2017-09-04T01:58:45.448Z,3.47
2017-09-04T02:01:12.937Z,3.70
2017-09-04T02:03:40.437Z,3.45
2017-09-04T02:06:07.944Z,3.10
2017-09-04T02:08:35.451Z,3.10
2017-09-04T02:11:02.764Z,3.40
2017-09-04T02:13:30.275Z,3.25
2017-09-04T02:15:57.776Z,3.40
2017-09-04T02:18:25.286Z,3.78
2017-09-04T02:20:52.792Z,3.75
2017-09-04T02:23:20.301Z,3.35
2017-09-04T02:25:47.813Z,3.58
2017-09-04T02:28:15.311Z,3.35
2017-09-04T02:30:44.740Z,3.33
2017-09-04T02:33:12.244Z,3.55
2017-09-04T02:35:39.748Z,3.62
2017-09-04T02:38:07.256Z,3.70
2017-09-04T02:40:34.772Z,3.53
2017-09-04T02:43:02.289Z,3.35
2017-09-04T02:45:29.792Z,2.95
2017-09-04T02:47:57.298Z,3.60
2017-09-04T02:50:24.820Z,3.40
2017-09-04T02:52:52.324Z,3.05
2017-09-04T02:55:19.834Z,3.10
2017-09-04T02:57:47.341Z,3.05
2017-09-04T03:00:14.841Z,2.92
2017-09-04T03:02:42.345Z,3.20
2017-09-04T03:05:09.849Z,3.40
2017-09-04T03:07:37.357Z,3.03
2017-09-04T03:10:04.867Z,3.00
2017-09-04T03:12:32.380Z,3.25
2017-09-04T03:14:59.889Z,3.10
2017-09-04T03:17:27.393Z,3.22
2017-09-04T03:19:54.903Z,2.70
2017-09-04T03:22:23.396Z,2.62
2017-09-04T03:24:50.899Z,2.97
2017-09-04T03:27:18.401Z,2.65
2017-09-04T03:29:45.717Z,2.60
2017-09-04T03:32:13.209Z,3.08
2017-09-04T03:34:40.709Z,3.03
2017-09-04T03:37:08.216Z,3.40
2017-09-04T03:39:35.539Z,3.28
2017-09-04T03:42:03.043Z,3.75
2017-09-04T03:44:30.373Z,3.78
2017-09-04T03:46:57.702Z,3.30
2017-09-04T03:49:25.500Z,3.58
2017-09-04T03:51:52.824Z,3.62
2017-09-04T03:54:21.117Z,3.33
2017-09-04T03:56:48.437Z,3.00
2017-09-04T03:59:15.946Z,3.20
2017-09-04T04:01:43.452Z,3.42
2017-09-04T04:04:10.963Z,3.22
2017-09-04T04:06:38.473Z,3.60
2017-09-04T04:09:05.984Z,3.33
2017-09-04T04:11:33.494Z,4.00
2017-09-04T04:14:01.010Z,3.50
2017-09-04T04:16:28.529Z,3.53
2017-09-04T04:18:56.037Z,3.40
2017-09-04T04:21:23.545Z,3.65
2017-09-04T04:23:51.043Z,3.30
2017-09-04T04:26:18.548Z,3.22
2017-09-04T04:28:46.049Z,3.80
2017-09-04T04:31:15.489Z,4.03
2017-09-04T04:33:43.989Z,3.87
2017-09-04T04:36:11.510Z,3.55
2017-09-04T04:38:39.030Z,3.33
2017-09-04T04:41:06.532Z,3.85
2017-09-04T04:43:34.042Z,4.10
2017-09-04T04:46:01.549Z,3.53
2017-09-04T04:48:31.004Z,3.83
2017-09-04T04:51:00.436Z,3.50
2017-09-04T04:53:27.946Z,3.72
2017-09-04T04:55:55.480Z,3.30
2017-09-04T04:58:22.990Z,3.40
2017-09-04T05:00:50.508Z,3.20
2017-09-04T05:03:18.013Z,3.25
2017-09-04T05:05:45.528Z,3.03
2017-09-04T05:08:13.033Z,4.07
2017-09-04T05:10:40.540Z,3.85
2017-09-04T05:13:08.051Z,5.05
2017-09-04T05:15:36.585Z,4.65
2017-09-04T05:18:04.095Z,4.80
2017-09-04T05:20:31.592Z,4.70
2017-09-04T05:22:59.496Z,4.55
2017-09-04T05:25:27.000Z,3.97
2017-09-04T05:27:54.519Z,4.35
2017-09-04T05:30:22.037Z,3.97
2017-09-04T05:32:49.549Z,3.65
2017-09-04T05:35:17.061Z,4.60
2017-09-04T05:37:44.553Z,3.37
2017-09-04T05:40:12.072Z,3.05
2017-09-04T05:42:39.581Z,3.85
2017-09-04T05:45:07.088Z,3.42
2017-09-04T05:47:34.400Z,3.58
2017-09-04T05:50:01.914Z,3.85
2017-09-04T05:52:29.421Z,3.40
2017-09-04T05:54:56.932Z,3.20
2017-09-04T05:57:25.424Z,3.10
2017-09-04T05:59:53.401Z,3.40
2017-09-04T06:02:21.897Z,3.40
2017-09-04T06:04:49.400Z,3.15
2017-09-04T06:07:16.920Z,3.55
2017-09-04T06:09:44.483Z,3.37
2017-09-04T06:12:11.993Z,3.25
2017-09-04T06:14:39.491Z,3.10
2017-09-04T06:17:06.825Z,3.47
2017-09-04T06:19:34.346Z,3.08
2017-09-04T06:22:01.848Z,3.10
2017-09-04T06:24:29.389Z,2.97
2017-09-04T06:26:56.903Z,2.75
2017-09-04T06:29:24.386Z,2.47
2017-09-04T06:31:51.893Z,2.35
2017-09-04T06:34:19.416Z,2.65
2017-09-04T06:36:46.920Z,2.33
2017-09-04T06:39:14.229Z,2.35
2017-09-04T06:41:41.788Z,2.30
2017-09-04T06:44:09.289Z,2.20
2017-09-04T06:46:36.784Z,2.40
2017-09-04T06:49:04.306Z,2.17
2017-09-04T06:51:32.057Z,1.80
2017-09-04T06:53:59.569Z,2.00
2017-09-04T06:56:27.090Z,2.60
2017-09-04T06:58:54.597Z,2.10
2017-09-04T07:01:22.112Z,2.20
2017-09-04T07:03:49.613Z,2.25
2017-09-04T07:06:17.121Z,1.70
2017-09-04T07:08:45.633Z,1.90
2017-09-04T07:11:13.141Z,1.50
2017-09-04T07:13:40.649Z,1.90
2017-09-04T07:16:08.160Z,1.90
2017-09-04T07:18:35.665Z,1.85
2017-09-04T07:21:03.169Z,1.80
2017-09-04T07:23:30.676Z,1.92
2017-09-04T07:25:58.183Z,1.85
2017-09-04T07:28:25.688Z,2.15
2017-09-04T07:30:53.197Z,1.83
2017-09-04T07:33:20.709Z,2.10
2017-09-04T07:35:48.223Z,2.40
2017-09-04T07:38:15.725Z,1.50
2017-09-04T07:40:43.228Z,1.52
2017-09-04T07:43:10.729Z,1.90
2017-09-04T07:45:38.249Z,1.70
2017-09-04T07:48:07.423Z,1.47
2017-09-04T07:50:34.640Z,1.87
2017-09-04T07:53:01.865Z,1.90
2017-09-04T07:55:31.005Z,1.40
2017-09-04T07:57:58.505Z,2.00
2017-09-04T08:00:25.731Z,1.70
2017-09-04T08:02:52.953Z,1.73
2017-09-04T08:05:20.172Z,1.80
2017-09-04T08:07:47.209Z,1.80
2017-09-04T08:10:14.435Z,1.50
2017-09-04T08:12:41.654Z,1.63
2017-09-04T08:15:08.875Z,1.63
2017-09-04T08:17:36.096Z,1.47
2017-09-04T08:20:03.327Z,1.60
2017-09-04T08:22:30.548Z,1.60
2017-09-04T08:24:57.769Z,1.40
2017-09-04T08:27:25.000Z,1.90
2017-09-04T08:29:52.216Z,1.43
2017-09-04T08:32:19.439Z,1.50
2017-09-04T08:34:48.577Z,1.60
2017-09-04T08:37:15.800Z,1.97
2017-09-04T08:39:43.020Z,1.50
2017-09-04T08:42:10.232Z,1.10
2017-09-04T08:44:37.281Z,1.50
2017-09-04T08:47:04.503Z,1.70
2017-09-04T08:49:31.538Z,1.77
2017-09-04T08:51:58.766Z,1.40
2017-09-04T08:54:25.989Z,1.70
2017-09-04T08:56:53.205Z,1.47
2017-09-04T08:59:22.342Z,1.60
2017-09-04T09:01:49.561Z,1.77
2017-09-04T09:04:16.777Z,1.53
2017-09-04T09:06:43.997Z,1.50
2017-09-04T09:09:11.240Z,1.90
2017-09-04T09:11:38.464Z,1.40
2017-09-04T09:14:05.684Z,1.40
2017-09-04T09:16:32.901Z,1.90
2017-09-04T09:19:00.125Z,1.43
2017-09-04T09:21:28.100Z,1.80
2017-09-04T09:23:55.137Z,2.10
2017-09-04T09:26:22.172Z,1.93
2017-09-04T09:28:49.205Z,2.40
2017-09-04T09:31:17.275Z,2.43
2017-09-04T09:33:44.714Z,2.30
2017-09-04T09:36:11.932Z,2.43
2017-09-04T09:38:39.148Z,2.10
2017-09-04T09:41:06.361Z,2.20
2017-09-04T09:43:33.582Z,1.83
2017-09-04T09:46:00.798Z,2.07
2017-09-04T09:48:27.833Z,1.80
2017-09-04T09:50:55.052Z,1.83
2017-09-04T09:53:23.026Z,2.00
2017-09-04T09:55:50.060Z,1.70
2017-09-04T09:58:17.088Z,1.87
2017-09-04T10:00:44.125Z,2.13
2017-09-04T10:03:11.168Z,2.40
2017-09-04T10:05:38.199Z,1.60
2017-09-04T10:08:05.233Z,1.87
2017-09-04T10:10:32.273Z,1.60
2017-09-04T10:13:00.316Z,1.60
2017-09-04T10:15:27.354Z,2.00
2017-09-04T10:17:55.406Z,2.00
2017-09-04T10:20:22.436Z,1.80
2017-09-04T10:22:49.469Z,2.10
2017-09-04T10:25:16.510Z,2.10
2017-09-04T10:27:43.538Z,1.97
2017-09-04T10:30:10.580Z,1.37
2017-09-04T10:32:37.618Z,1.80
2017-09-04T10:35:04.655Z,1.70
2017-09-04T10:37:31.685Z,1.67
2017-09-04T10:39:59.717Z,1.60
2017-09-04T10:42:26.747Z,1.93
2017-09-04T10:44:53.782Z,2.10
2017-09-04T10:47:21.740Z,1.60
2017-09-04T10:49:48.768Z,1.63
2017-09-04T10:52:15.800Z,1.80
2017-09-04T10:54:42.841Z,2.47
2017-09-04T10:57:10.070Z,2.03
2017-09-04T10:59:38.032Z,1.70
2017-09-04T11:02:05.252Z,1.50
2017-09-04T11:04:33.214Z,1.50
2017-09-04T11:07:00.443Z,1.70
2017-09-04T11:09:27.658Z,1.80
2017-09-04T11:11:54.693Z,1.80
2017-09-04T11:14:22.663Z,1.70
2017-09-04T11:16:49.701Z,1.50
2017-09-04T11:19:17.672Z,1.60
2017-09-04T11:21:44.707Z,1.70
2017-09-04T11:24:12.677Z,1.80
2017-09-04T11:26:39.717Z,1.87
2017-09-04T11:29:06.746Z,2.13
2017-09-04T11:31:33.781Z,2.30
2017-09-04T11:34:01.744Z,1.67
2017-09-04T11:36:28.772Z,1.90
2017-09-04T11:38:55.988Z,1.60
2017-09-04T11:41:23.206Z,1.27
2017-09-04T11:43:50.420Z,1.60
2017-09-04T11:46:17.640Z,1.63
2017-09-04T11:48:44.853Z,1.77
2017-09-04T11:51:11.881Z,1.63
2017-09-04T11:53:39.103Z,1.73
2017-09-04T11:56:06.136Z,1.60
2017-09-04T11:58:33.352Z,1.60
2017-09-04T12:01:00.384Z,1.60
2017-09-04T12:03:27.607Z,1.70
2017-09-04T12:05:54.836Z,1.40
2017-09-04T12:08:22.053Z,1.70
2017-09-04T12:10:49.269Z,1.57
2017-09-04T12:13:16.300Z,1.33
2017-09-04T12:15:43.517Z,1.63
2017-09-04T12:18:10.740Z,1.70
2017-09-04T12:20:37.960Z,1.63
2017-09-04T12:23:05.178Z,1.60
2017-09-04T12:25:32.397Z,1.53
2017-09-04T12:27:59.440Z,1.50
2017-09-04T12:30:26.664Z,1.70
2017-09-04T12:32:53.880Z,1.70
2017-09-04T12:35:21.100Z,1.60
2017-09-04T12:37:50.286Z,1.50
2017-09-04T12:40:17.301Z,1.57
2017-09-04T12:42:44.526Z,1.37
2017-09-04T12:45:11.744Z,1.37
2017-09-04T12:47:38.772Z,1.40
2017-09-04T12:50:05.808Z,1.40
2017-09-04T12:52:33.029Z,1.00
2017-09-04T12:55:00.244Z,1.20
2017-09-04T12:57:27.444Z,1.50
2017-09-04T12:59:56.637Z,1.50
2017-09-04T13:02:23.856Z,1.30
2017-09-04T13:04:51.080Z,1.57
2017-09-04T13:07:18.121Z,1.50
2017-09-04T13:09:45.153Z,1.60
2017-09-04T13:12:17.148Z,1.50
2017-09-04T13:14:46.636Z,1.13
2017-09-04T13:17:19.412Z,1.43
2017-09-04T13:20:03.211Z,1.20
2017-09-04T13:22:35.945Z,1.57
2017-09-04T13:25:08.728Z,1.50
2017-09-04T13:27:41.477Z,1.23
2017-09-04T13:30:14.326Z,1.10
2017-09-04T13:32:59.041Z,1.23
2017-09-04T13:35:31.789Z,1.20
2017-09-04T13:38:05.493Z,1.30
2017-09-04T13:40:38.271Z,1.17
2017-09-04T13:43:11.128Z,1.17
2017-09-04T13:45:43.977Z,1.70
2017-09-04T13:48:14.882Z,1.30
2017-09-04T13:50:54.678Z,1.30
2017-09-04T13:53:28.399Z,1.40
2017-09-04T13:55:58.081Z,1.67
2017-09-04T13:58:30.881Z,1.50
2017-09-04T14:01:15.651Z,1.20
2017-09-04T14:03:48.368Z,1.30
2017-09-04T14:06:35.839Z,1.17
2017-09-04T14:09:08.596Z,1.30
2017-09-04T14:11:41.361Z,1.40
2017-09-04T14:14:14.209Z,1.13
2017-09-04T14:16:42.090Z,1.37
2017-09-04T14:19:09.312Z,1.30
2017-09-04T14:21:36.344Z,1.07
2017-09-04T14:24:03.384Z,1.60
2017-09-04T14:26:30.425Z,1.50
2017-09-04T14:28:57.460Z,1.50
2017-09-04T14:31:24.496Z,1.50
2017-09-04T14:33:51.534Z,1.33
2017-09-04T14:36:18.572Z,1.60
2017-09-04T14:38:45.610Z,1.40
2017-09-04T14:41:15.238Z,1.53
2017-09-04T14:43:42.268Z,1.80
2017-09-04T14:46:14.005Z,1.67
2017-09-04T14:48:42.033Z,1.60
2017-09-04T14:51:10.004Z,1.67
2017-09-04T14:53:37.049Z,1.33
2017-09-04T14:56:04.085Z,1.60
2017-09-04T14:58:31.125Z,1.30
2017-09-04T15:00:58.351Z,1.87
2017-09-04T15:03:25.381Z,1.27
2017-09-04T15:05:52.423Z,1.47
2017-09-04T15:08:19.468Z,1.63
2017-09-04T15:10:46.508Z,1.47
2017-09-04T15:13:13.545Z,2.10
2017-09-04T15:15:41.562Z,1.30
2017-09-04T15:18:08.781Z,1.30
2017-09-04T15:20:35.996Z,1.50
2017-09-04T15:23:03.037Z,2.53
2017-09-04T15:25:30.073Z,1.63
2017-09-04T15:27:57.107Z,1.40
2017-09-04T15:30:25.078Z,2.83
2017-09-04T15:32:52.114Z,3.50
2017-09-04T15:35:19.165Z,2.10
2017-09-04T15:37:47.141Z,1.90
2017-09-04T15:40:14.172Z,2.23
2017-09-04T15:42:41.195Z,1.53
2017-09-04T15:45:09.237Z,1.70
2017-09-04T15:47:36.281Z,1.50
2017-09-04T15:50:03.318Z,1.70
2017-09-04T15:52:30.352Z,1.30
2017-09-04T15:54:58.376Z,1.70
2017-09-04T15:57:25.423Z,1.53
2017-09-04T15:59:52.469Z,1.30
2017-09-04T16:02:19.509Z,1.67
2017-09-04T16:04:46.541Z,1.47
2017-09-04T16:07:14.565Z,2.03
2017-09-04T16:09:42.598Z,2.23
2017-09-04T16:12:10.364Z,2.80
2017-09-04T16:14:37.396Z,1.17
2017-09-04T16:17:21.160Z,1.50
2017-09-04T16:19:53.089Z,1.80
2017-09-04T16:22:21.075Z,1.43
2017-09-04T16:24:48.104Z,1.50
2017-09-04T16:27:17.709Z,1.80
2017-09-04T16:30:05.489Z,1.30
2017-09-04T16:32:35.153Z,1.43
2017-09-04T16:35:10.965Z,1.23
2017-09-04T16:37:40.480Z,1.73
2017-09-04T16:40:07.504Z,2.13
2017-09-04T16:42:40.025Z,1.83
2017-09-04T16:45:07.988Z,1.37
2017-09-04T16:47:49.901Z,2.87
2017-09-04T16:50:34.695Z,2.13
2017-09-04T16:53:20.445Z,6.40
2017-09-04T16:55:48.417Z,1.83
2017-09-04T16:58:16.409Z,1.63
2017-09-04T17:03:19.428Z,1.50
2017-09-04T17:05:46.765Z,1.53
2017-09-04T17:08:14.652Z,1.50
2017-09-04T17:10:43.409Z,1.83
2017-09-04T17:13:10.441Z,1.80
2017-09-04T17:15:38.320Z,2.10
2017-09-04T17:18:20.231Z,1.73
2017-09-04T17:21:02.147Z,1.50
2017-09-04T17:23:29.893Z,1.70
2017-09-04T17:25:56.929Z,1.90
2017-09-04T17:28:23.964Z,2.27
2017-09-04T17:30:52.225Z,1.90
2017-09-04T17:33:19.560Z,1.67
2017-09-04T17:35:47.434Z,2.17
2017-09-04T17:38:14.745Z,1.70
2017-09-04T17:40:42.065Z,2.00
2017-09-04T17:43:09.387Z,1.80
2017-09-04T17:45:37.716Z,2.00
2017-09-04T17:48:05.040Z,1.90
2017-09-04T17:50:32.360Z,1.75
2017-09-04T17:52:59.701Z,1.92
2017-09-04T17:55:27.030Z,2.05
2017-09-04T17:57:54.360Z,2.03
2017-09-04T18:00:21.717Z,2.20
2017-09-04T18:02:49.221Z,2.03
2017-09-04T18:05:16.737Z,2.20
2017-09-04T18:07:44.244Z,2.17
2017-09-04T18:10:13.673Z,2.30
2017-09-04T18:12:41.182Z,1.92
2017-09-04T18:15:08.501Z,2.00
2017-09-04T18:17:36.010Z,2.40
2017-09-04T18:20:03.821Z,1.80
2017-09-04T18:22:32.086Z,2.17
2017-09-04T18:24:59.549Z,2.42
2017-09-04T18:27:27.528Z,2.00
2017-09-04T18:29:54.965Z,2.00
2017-09-04T18:32:22.282Z,2.65
2017-09-04T18:34:49.612Z,1.80
2017-09-04T18:37:17.117Z,2.40
2017-09-04T18:39:44.422Z,2.78
2017-09-04T18:42:14.146Z,2.35
2017-09-04T18:44:41.609Z,2.10
2017-09-04T18:47:08.928Z,1.83
2017-09-04T18:49:36.245Z,2.10
2017-09-04T18:52:03.588Z,2.12
2017-09-04T18:54:30.929Z,2.05
2017-09-04T18:56:59.241Z,2.45
2017-09-04T18:59:26.560Z,1.55
2017-09-04T19:01:53.877Z,1.70
2017-09-04T19:04:21.384Z,2.00
2017-09-04T19:06:48.889Z,2.17
2017-09-04T19:09:16.395Z,1.90
2017-09-04T19:11:43.706Z,2.20
2017-09-04T19:14:11.325Z,1.95
2017-09-04T19:16:38.641Z,2.15
2017-09-04T19:19:05.953Z,1.60
2017-09-04T19:21:33.266Z,2.10
2017-09-04T19:24:00.569Z,2.20
2017-09-04T19:26:27.892Z,2.00
2017-09-04T19:28:55.411Z,2.62
2017-09-04T19:31:22.724Z,2.65
2017-09-04T19:33:50.034Z,2.60
2017-09-04T19:36:17.346Z,2.70
2017-09-04T19:38:44.669Z,2.62
2017-09-04T19:41:12.922Z,2.15
2017-09-04T19:43:41.226Z,2.50
2017-09-04T19:46:08.547Z,2.33
2017-09-04T19:48:36.288Z,2.08
2017-09-04T19:51:03.797Z,2.50
2017-09-04T19:53:32.080Z,2.45
2017-09-04T19:55:59.596Z,3.00
2017-09-04T19:58:26.906Z,2.80
2017-09-04T20:00:54.233Z,2.95
2017-09-04T20:03:21.552Z,2.90
2017-09-04T20:05:48.861Z,2.72
2017-09-04T20:08:16.177Z,2.75
2017-09-04T20:10:43.485Z,2.50
2017-09-04T20:13:10.812Z,2.40
2017-09-04T20:15:38.120Z,2.10
2017-09-04T20:18:05.437Z,2.35
2017-09-04T20:20:33.760Z,2.53
2017-09-04T20:23:01.070Z,2.42
2017-09-04T20:25:28.384Z,2.50
2017-09-04T20:27:55.887Z,2.75
2017-09-04T20:30:23.388Z,2.80
2017-09-04T20:32:50.696Z,3.05
2017-09-04T20:35:18.200Z,2.85
2017-09-04T20:37:45.517Z,2.90
2017-09-04T20:40:13.026Z,3.00
2017-09-04T20:42:40.697Z,3.42
2017-09-04T20:45:09.026Z,3.22
2017-09-04T20:47:37.508Z,3.08
2017-09-04T20:50:04.848Z,3.67
2017-09-04T20:52:32.192Z,3.60
2017-09-04T20:54:59.700Z,3.90
2017-09-04T20:57:27.209Z,5.30
2017-09-04T20:59:54.536Z,4.60
2017-09-04T21:02:22.552Z,4.80
2017-09-04T21:04:49.877Z,4.55
2017-09-04T21:07:17.204Z,4.25
2017-09-04T21:09:44.521Z,4.43
2017-09-04T21:12:12.827Z,4.55
2017-09-04T21:14:40.154Z,4.37
2017-09-04T21:17:07.469Z,5.15
2017-09-04T21:19:34.790Z,4.97
2017-09-04T21:22:02.105Z,4.68
2017-09-04T21:24:30.416Z,5.05
2017-09-04T21:26:57.732Z,4.93
2017-09-04T21:29:25.052Z,4.68
2017-09-04T21:31:52.377Z,4.75
2017-09-04T21:34:19.700Z,4.82
2017-09-04T21:36:47.012Z,4.82
2017-09-04T21:39:14.337Z,4.43
2017-09-04T21:41:41.661Z,4.32
2017-09-04T21:44:08.977Z,4.80
2017-09-04T21:46:36.484Z,4.90
2017-09-04T21:49:03.988Z,4.60
2017-09-04T21:51:31.489Z,4.68
2017-09-04T21:53:59.004Z,4.80
2017-09-04T21:56:26.509Z,5.05
2017-09-04T21:58:54.016Z,4.93
2017-09-04T22:01:21.526Z,4.80
2017-09-04T22:03:49.043Z,4.25
2017-09-04T22:06:16.552Z,4.70
2017-09-04T22:08:44.059Z,4.20
2017-09-04T22:11:11.570Z,3.90
2017-09-04T22:13:39.080Z,4.32
2017-09-04T22:16:06.589Z,3.80
2017-09-04T22:18:34.090Z,3.30
2017-09-04T22:21:01.591Z,3.95
2017-09-04T22:23:29.101Z,3.37
2017-09-04T22:25:56.606Z,4.20
2017-09-04T22:28:24.108Z,3.97
2017-09-04T22:30:51.419Z,3.60
2017-09-04T22:33:18.738Z,3.58
2017-09-04T22:35:46.064Z,3.40
2017-09-04T22:38:13.392Z,3.15
2017-09-04T22:40:40.916Z,3.37
2017-09-04T22:43:08.418Z,2.83
2017-09-04T22:45:35.741Z,4.03
2017-09-04T22:48:04.075Z,3.30
2017-09-04T22:50:31.397Z,3.00
2017-09-04T22:52:58.723Z,3.15
2017-09-04T22:55:26.036Z,3.85
2017-09-04T22:57:54.076Z,3.85
2017-09-04T23:00:21.393Z,3.95
2017-09-04T23:02:48.716Z,3.90
2017-09-04T23:05:16.038Z,3.55
2017-09-04T23:07:43.352Z,3.85
2017-09-04T23:10:10.676Z,3.10
2017-09-04T23:12:38.021Z,3.62
2017-09-04T23:15:05.525Z,2.90
2017-09-04T23:17:33.034Z,3.25
2017-09-04T23:20:00.549Z,3.60
2017-09-04T23:22:27.872Z,3.70
2017-09-04T23:24:56.233Z,3.55
2017-09-04T23:27:23.564Z,3.00
2017-09-04T23:29:51.068Z,3.47
2017-09-04T23:32:18.572Z,3.50
2017-09-04T23:34:46.080Z,3.65
2017-09-04T23:37:13.404Z,4.18
2017-09-04T23:39:41.647Z,3.72
2017-09-04T23:42:09.152Z,3.53
2017-09-04T23:44:36.661Z,4.65
2017-09-04T23:47:04.181Z,3.85
2017-09-04T23:49:31.505Z,3.40
2017-09-04T23:51:58.833Z,4.15
2017-09-04T23:54:26.153Z,3.17
2017-09-04T23:56:53.475Z,3.62
2017-09-04T23:59:21.776Z,3.30
